sensor_id;sensor_type;location;lat;lon;timestamp;temperature;humidity
72936;DHT22;61085;48.804;9.228;2023-02-26T00:01:29;2.40;99.90
72936;DHT22;61085;48.804;9.228;2023-02-26T00:03:59;2.30;99.90
72936;DHT22;61085;48.804;9.228;2023-02-26T00:06:25;2.30;99.90
72936;DHT22;61085;48.804;9.228;2023-02-26T00:08:52;2.20;99.90
72936;DHT22;61085;48.804;9.228;2023-02-26T00:11:18;2.30;99.90
72936;DHT22;61085;48.804;9.228;2023-02-26T00:13:44;2.30;99.90
72936;DHT22;61085;48.804;9.228;2023-02-26T00:18:49;2.30;99.90
72936;DHT22;61085;48.804;9.228;2023-02-26T00:21:20;2.30;99.90
72936;DHT22;61085;48.804;9.228;2023-02-26T00:23:46;2.20;99.90
72936;DHT22;61085;48.804;9.228;2023-02-26T00:26:12;2.30;99.90
72936;DHT22;61085;48.804;9.228;2023-02-26T00:28:38;2.30;99.90
72936;DHT22;61085;48.804;9.228;2023-02-26T00:31:04;2.20;99.90
72936;DHT22;61085;48.804;9.228;2023-02-26T00:33:30;2.20;99.90
72936;DHT22;61085;48.804;9.228;2023-02-26T00:36:11;2.20;99.90
72936;DHT22;61085;48.804;9.228;2023-02-26T00:38:39;2.00;99.90
72936;DHT22;61085;48.804;9.228;2023-02-26T00:41:07;2.00;99.90
72936;DHT22;61085;48.804;9.228;2023-02-26T00:43:33;2.00;99.90
72936;DHT22;61085;48.804;9.228;2023-02-26T00:49:02;2.00;99.90
72936;DHT22;61085;48.804;9.228;2023-02-26T00:51:31;1.90;99.90
72936;DHT22;61085;48.804;9.228;2023-02-26T00:54:21;1.90;99.90
72936;DHT22;61085;48.804;9.228;2023-02-26T00:56:48;1.90;99.90
72936;DHT22;61085;48.804;9.228;2023-02-26T00:59:17;1.90;99.90
72936;DHT22;61085;48.804;9.228;2023-02-26T01:01:43;1.90;99.90
72936;DHT22;61085;48.804;9.228;2023-02-26T01:04:10;1.80;99.90
72936;DHT22;61085;48.804;9.228;2023-02-26T01:06:41;1.90;99.90
72936;DHT22;61085;48.804;9.228;2023-02-26T01:09:31;2.00;99.90
72936;DHT22;61085;48.804;9.228;2023-02-26T01:12:00;1.70;99.90
72936;DHT22;61085;48.804;9.228;2023-02-26T01:14:28;1.70;99.90
72936;DHT22;61085;48.804;9.228;2023-02-26T01:17:07;1.70;99.90
72936;DHT22;61085;48.804;9.228;2023-02-26T01:22:42;1.70;99.90
72936;DHT22;61085;48.804;9.228;2023-02-26T01:27:46;1.60;99.90
72936;DHT22;61085;48.804;9.228;2023-02-26T01:30:12;1.60;99.90
72936;DHT22;61085;48.804;9.228;2023-02-26T01:49:44;1.40;99.90
72936;DHT22;61085;48.804;9.228;2023-02-26T01:55:18;1.20;99.90
72936;DHT22;61085;48.804;9.228;2023-02-26T01:57:44;1.20;99.90
72936;DHT22;61085;48.804;9.228;2023-02-26T02:00:10;1.30;99.90
72936;DHT22;61085;48.804;9.228;2023-02-26T02:02:36;1.20;99.90
72936;DHT22;61085;48.804;9.228;2023-02-26T02:05:06;1.20;99.90
72936;DHT22;61085;48.804;9.228;2023-02-26T02:07:35;1.20;99.90
72936;DHT22;61085;48.804;9.228;2023-02-26T02:10:00;1.20;99.90
72936;DHT22;61085;48.804;9.228;2023-02-26T02:23:34;1.20;99.90
72936;DHT22;61085;48.804;9.228;2023-02-26T02:28:58;1.20;99.90
72936;DHT22;61085;48.804;9.228;2023-02-26T02:31:49;1.20;99.90
72936;DHT22;61085;48.804;9.228;2023-02-26T02:34:30;1.20;99.90
72936;DHT22;61085;48.804;9.228;2023-02-26T02:40:28;1.10;99.90
72936;DHT22;61085;48.804;9.228;2023-02-26T02:43:09;1.10;99.90
72936;DHT22;61085;48.804;9.228;2023-02-26T02:45:41;1.00;99.90
72936;DHT22;61085;48.804;9.228;2023-02-26T02:48:25;1.00;99.90
72936;DHT22;61085;48.804;9.228;2023-02-26T02:51:33;0.90;99.90
72936;DHT22;61085;48.804;9.228;2023-02-26T02:54:05;0.90;99.90
72936;DHT22;61085;48.804;9.228;2023-02-26T02:57:18;0.90;99.90
72936;DHT22;61085;48.804;9.228;2023-02-26T02:59:52;0.90;99.90
72936;DHT22;61085;48.804;9.228;2023-02-26T03:04:55;0.80;99.90
72936;DHT22;61085;48.804;9.228;2023-02-26T03:07:21;0.80;99.90
72936;DHT22;61085;48.804;9.228;2023-02-26T03:09:47;0.80;99.90
72936;DHT22;61085;48.804;9.228;2023-02-26T03:12:13;0.80;99.90
72936;DHT22;61085;48.804;9.228;2023-02-26T03:14:39;0.80;99.90
72936;DHT22;61085;48.804;9.228;2023-02-26T03:20:21;0.80;99.90
72936;DHT22;61085;48.804;9.228;2023-02-26T03:23:04;0.80;99.90
72936;DHT22;61085;48.804;9.228;2023-02-26T03:25:54;0.90;99.90
72936;DHT22;61085;48.804;9.228;2023-02-26T03:28:30;0.90;99.90
72936;DHT22;61085;48.804;9.228;2023-02-26T03:30:57;0.80;99.90
72936;DHT22;61085;48.804;9.228;2023-02-26T03:36:17;1.00;99.90
72936;DHT22;61085;48.804;9.228;2023-02-26T03:38:49;0.90;99.90
72936;DHT22;61085;48.804;9.228;2023-02-26T03:41:35;0.90;99.90
72936;DHT22;61085;48.804;9.228;2023-02-26T03:44:08;0.80;99.90
72936;DHT22;61085;48.804;9.228;2023-02-26T03:46:44;0.80;99.90
72936;DHT22;61085;48.804;9.228;2023-02-26T03:49:19;0.90;99.90
72936;DHT22;61085;48.804;9.228;2023-02-26T03:51:46;0.80;99.90
72936;DHT22;61085;48.804;9.228;2023-02-26T03:54:32;0.80;99.90
72936;DHT22;61085;48.804;9.228;2023-02-26T03:56:58;0.80;99.90
72936;DHT22;61085;48.804;9.228;2023-02-26T03:59:24;0.70;99.90
72936;DHT22;61085;48.804;9.228;2023-02-26T04:04:43;0.80;99.90
72936;DHT22;61085;48.804;9.228;2023-02-26T04:07:11;0.80;99.90
72936;DHT22;61085;48.804;9.228;2023-02-26T04:09:40;0.80;99.90
72936;DHT22;61085;48.804;9.228;2023-02-26T04:12:06;0.90;99.90
72936;DHT22;61085;48.804;9.228;2023-02-26T04:14:32;0.80;99.90
72936;DHT22;61085;48.804;9.228;2023-02-26T04:16:57;0.80;99.90
72936;DHT22;61085;48.804;9.228;2023-02-26T04:19:23;0.70;99.90
72936;DHT22;61085;48.804;9.228;2023-02-26T04:21:48;0.70;99.90
72936;DHT22;61085;48.804;9.228;2023-02-26T04:24:14;0.50;99.90
72936;DHT22;61085;48.804;9.228;2023-02-26T04:26:40;0.50;99.90
72936;DHT22;61085;48.804;9.228;2023-02-26T04:29:05;0.40;99.90
72936;DHT22;61085;48.804;9.228;2023-02-26T04:31:31;0.30;99.90
72936;DHT22;61085;48.804;9.228;2023-02-26T04:33:56;0.30;99.90
72936;DHT22;61085;48.804;9.228;2023-02-26T04:36:22;0.20;99.90
72936;DHT22;61085;48.804;9.228;2023-02-26T04:38:47;0.20;99.90
72936;DHT22;61085;48.804;9.228;2023-02-26T04:41:23;0.20;99.90
72936;DHT22;61085;48.804;9.228;2023-02-26T04:43:48;0.20;99.90
72936;DHT22;61085;48.804;9.228;2023-02-26T04:46:14;0.20;99.90
72936;DHT22;61085;48.804;9.228;2023-02-26T04:48:39;0.20;99.90
72936;DHT22;61085;48.804;9.228;2023-02-26T04:51:05;0.30;99.90
72936;DHT22;61085;48.804;9.228;2023-02-26T04:53:31;0.30;99.90
72936;DHT22;61085;48.804;9.228;2023-02-26T04:55:56;0.30;99.90
72936;DHT22;61085;48.804;9.228;2023-02-26T04:58:22;0.40;99.90
72936;DHT22;61085;48.804;9.228;2023-02-26T05:00:49;0.40;99.90
72936;DHT22;61085;48.804;9.228;2023-02-26T05:03:16;0.40;99.90
72936;DHT22;61085;48.804;9.228;2023-02-26T05:05:42;0.40;99.90
72936;DHT22;61085;48.804;9.228;2023-02-26T05:08:07;0.40;99.90
72936;DHT22;61085;48.804;9.228;2023-02-26T05:10:33;0.40;99.90
72936;DHT22;61085;48.804;9.228;2023-02-26T05:12:59;0.30;99.90
72936;DHT22;61085;48.804;9.228;2023-02-26T05:15:24;0.20;99.90
72936;DHT22;61085;48.804;9.228;2023-02-26T05:17:50;0.20;99.90
72936;DHT22;61085;48.804;9.228;2023-02-26T05:20:15;0.20;99.90
72936;DHT22;61085;48.804;9.228;2023-02-26T05:22:41;0.20;99.90
72936;DHT22;61085;48.804;9.228;2023-02-26T05:25:08;0.10;99.90
72936;DHT22;61085;48.804;9.228;2023-02-26T05:27:37;0.20;99.90
72936;DHT22;61085;48.804;9.228;2023-02-26T05:30:03;0.20;99.90
72936;DHT22;61085;48.804;9.228;2023-02-26T05:32:29;0.20;99.90
72936;DHT22;61085;48.804;9.228;2023-02-26T05:34:57;0.30;99.90
72936;DHT22;61085;48.804;9.228;2023-02-26T05:37:23;0.30;99.90
72936;DHT22;61085;48.804;9.228;2023-02-26T05:39:48;0.20;99.90
72936;DHT22;61085;48.804;9.228;2023-02-26T05:42:14;0.20;99.90
72936;DHT22;61085;48.804;9.228;2023-02-26T05:44:40;0.20;99.90
72936;DHT22;61085;48.804;9.228;2023-02-26T05:47:05;0.10;99.90
72936;DHT22;61085;48.804;9.228;2023-02-26T05:49:31;0.00;99.90
72936;DHT22;61085;48.804;9.228;2023-02-26T05:51:56;-0.10;99.90
72936;DHT22;61085;48.804;9.228;2023-02-26T05:54:22;0.00;99.90
72936;DHT22;61085;48.804;9.228;2023-02-26T05:56:48;0.00;99.90
72936;DHT22;61085;48.804;9.228;2023-02-26T05:59:13;-0.10;99.90
72936;DHT22;61085;48.804;9.228;2023-02-26T06:01:39;-0.10;99.90
72936;DHT22;61085;48.804;9.228;2023-02-26T06:04:05;-0.20;99.90
72936;DHT22;61085;48.804;9.228;2023-02-26T06:06:31;-0.30;99.90
72936;DHT22;61085;48.804;9.228;2023-02-26T06:08:57;-0.30;99.90
72936;DHT22;61085;48.804;9.228;2023-02-26T06:11:23;-0.20;99.90
72936;DHT22;61085;48.804;9.228;2023-02-26T06:13:51;-0.30;99.90
72936;DHT22;61085;48.804;9.228;2023-02-26T06:16:17;-0.40;99.90
72936;DHT22;61085;48.804;9.228;2023-02-26T06:18:45;-0.30;99.90
72936;DHT22;61085;48.804;9.228;2023-02-26T06:21:10;-0.20;99.90
72936;DHT22;61085;48.804;9.228;2023-02-26T06:23:36;-0.30;99.90
72936;DHT22;61085;48.804;9.228;2023-02-26T06:26:02;-0.10;99.90
72936;DHT22;61085;48.804;9.228;2023-02-26T06:28:27;-0.20;99.90
72936;DHT22;61085;48.804;9.228;2023-02-26T06:30:53;-0.10;99.90
72936;DHT22;61085;48.804;9.228;2023-02-26T06:33:19;0.00;99.90
72936;DHT22;61085;48.804;9.228;2023-02-26T06:35:45;0.00;99.90
72936;DHT22;61085;48.804;9.228;2023-02-26T06:38:11;-0.10;99.90
72936;DHT22;61085;48.804;9.228;2023-02-26T06:40:36;0.20;99.90
72936;DHT22;61085;48.804;9.228;2023-02-26T06:43:02;0.20;99.90
72936;DHT22;61085;48.804;9.228;2023-02-26T06:45:28;0.10;99.90
72936;DHT22;61085;48.804;9.228;2023-02-26T06:47:53;0.20;99.90
72936;DHT22;61085;48.804;9.228;2023-02-26T06:50:19;0.30;99.90
72936;DHT22;61085;48.804;9.228;2023-02-26T06:52:45;0.30;99.90
72936;DHT22;61085;48.804;9.228;2023-02-26T06:55:11;0.20;99.90
72936;DHT22;61085;48.804;9.228;2023-02-26T06:57:36;0.20;99.90
72936;DHT22;61085;48.804;9.228;2023-02-26T07:00:03;0.20;99.90
72936;DHT22;61085;48.804;9.228;2023-02-26T07:02:29;0.20;99.90
72936;DHT22;61085;48.804;9.228;2023-02-26T07:04:55;0.30;99.90
72936;DHT22;61085;48.804;9.228;2023-02-26T07:07:20;0.40;99.90
72936;DHT22;61085;48.804;9.228;2023-02-26T07:09:46;0.30;99.90
72936;DHT22;61085;48.804;9.228;2023-02-26T07:12:14;0.50;99.90
72936;DHT22;61085;48.804;9.228;2023-02-26T07:14:40;0.70;99.90
72936;DHT22;61085;48.804;9.228;2023-02-26T07:17:07;0.70;99.90
72936;DHT22;61085;48.804;9.228;2023-02-26T07:19:33;0.80;99.90
72936;DHT22;61085;48.804;9.228;2023-02-26T07:21:59;0.60;99.90
72936;DHT22;61085;48.804;9.228;2023-02-26T07:24:28;0.70;99.90
72936;DHT22;61085;48.804;9.228;2023-02-26T07:26:54;1.00;99.90
72936;DHT22;61085;48.804;9.228;2023-02-26T07:29:20;2.20;99.90
72936;DHT22;61085;48.804;9.228;2023-02-26T07:31:45;4.30;97.10
72936;DHT22;61085;48.804;9.228;2023-02-26T07:34:11;5.40;87.00
72936;DHT22;61085;48.804;9.228;2023-02-26T07:36:39;5.80;84.90
72936;DHT22;61085;48.804;9.228;2023-02-26T07:39:04;5.40;76.10
72936;DHT22;61085;48.804;9.228;2023-02-26T07:41:30;4.60;82.00
72936;DHT22;61085;48.804;9.228;2023-02-26T07:43:55;4.10;91.30
72936;DHT22;61085;48.804;9.228;2023-02-26T07:46:21;3.80;90.80
72936;DHT22;61085;48.804;9.228;2023-02-26T07:48:47;3.30;93.30
72936;DHT22;61085;48.804;9.228;2023-02-26T07:51:12;2.80;95.20
72936;DHT22;61085;48.804;9.228;2023-02-26T07:53:38;2.30;97.00
72936;DHT22;61085;48.804;9.228;2023-02-26T07:56:03;1.70;99.80
72936;DHT22;61085;48.804;9.228;2023-02-26T07:58:30;1.70;99.90
72936;DHT22;61085;48.804;9.228;2023-02-26T08:00:57;1.50;99.90
72936;DHT22;61085;48.804;9.228;2023-02-26T08:03:22;1.40;99.90
72936;DHT22;61085;48.804;9.228;2023-02-26T08:05:48;2.10;99.90
72936;DHT22;61085;48.804;9.228;2023-02-26T08:10:40;4.50;91.90
72936;DHT22;61085;48.804;9.228;2023-02-26T08:13:06;5.10;88.60
72936;DHT22;61085;48.804;9.228;2023-02-26T08:15:32;5.40;84.70
72936;DHT22;61085;48.804;9.228;2023-02-26T08:17:57;5.20;85.80
72936;DHT22;61085;48.804;9.228;2023-02-26T08:20:23;4.60;89.50
72936;DHT22;61085;48.804;9.228;2023-02-26T08:22:52;4.50;90.00
72936;DHT22;61085;48.804;9.228;2023-02-26T08:25:18;4.00;91.20
72936;DHT22;61085;48.804;9.228;2023-02-26T08:27:47;4.30;93.40
72936;DHT22;61085;48.804;9.228;2023-02-26T08:30:13;4.80;89.50
72936;DHT22;61085;48.804;9.228;2023-02-26T08:32:38;4.10;91.20
72936;DHT22;61085;48.804;9.228;2023-02-26T08:35:06;3.30;92.40
72936;DHT22;61085;48.804;9.228;2023-02-26T08:37:32;2.40;97.50
72936;DHT22;61085;48.804;9.228;2023-02-26T08:39:58;2.20;99.90
72936;DHT22;61085;48.804;9.228;2023-02-26T08:42:26;3.40;99.30
72936;DHT22;61085;48.804;9.228;2023-02-26T08:44:52;4.60;91.60
72936;DHT22;61085;48.804;9.228;2023-02-26T08:47:18;5.10;87.30
72936;DHT22;61085;48.804;9.228;2023-02-26T08:49:43;4.90;84.10
72936;DHT22;61085;48.804;9.228;2023-02-26T08:52:09;4.70;91.60
72936;DHT22;61085;48.804;9.228;2023-02-26T08:54:35;3.40;92.30
72936;DHT22;61085;48.804;9.228;2023-02-26T08:57:00;2.90;95.50
72936;DHT22;61085;48.804;9.228;2023-02-26T08:59:29;2.20;98.10
72936;DHT22;61085;48.804;9.228;2023-02-26T09:01:54;2.10;99.90
72936;DHT22;61085;48.804;9.228;2023-02-26T09:04:20;1.80;99.90
72936;DHT22;61085;48.804;9.228;2023-02-26T09:06:46;1.60;99.90
72936;DHT22;61085;48.804;9.228;2023-02-26T09:09:12;1.40;99.90
72936;DHT22;61085;48.804;9.228;2023-02-26T09:11:38;1.50;99.90
72936;DHT22;61085;48.804;9.228;2023-02-26T09:14:04;1.60;99.90
72936;DHT22;61085;48.804;9.228;2023-02-26T09:16:30;1.50;99.90
72936;DHT22;61085;48.804;9.228;2023-02-26T09:18:56;1.40;99.90
72936;DHT22;61085;48.804;9.228;2023-02-26T09:21:22;1.20;99.90
72936;DHT22;61085;48.804;9.228;2023-02-26T09:23:48;1.10;99.90
72936;DHT22;61085;48.804;9.228;2023-02-26T09:26:14;1.10;99.90
72936;DHT22;61085;48.804;9.228;2023-02-26T09:28:40;1.20;99.90
72936;DHT22;61085;48.804;9.228;2023-02-26T09:31:05;1.60;99.90
72936;DHT22;61085;48.804;9.228;2023-02-26T09:33:32;2.50;99.90
72936;DHT22;61085;48.804;9.228;2023-02-26T11:13:10;1.70;99.90
72936;DHT22;61085;48.804;9.228;2023-02-26T11:15:37;1.70;99.90
72936;DHT22;61085;48.804;9.228;2023-02-26T11:18:03;1.90;99.90
72936;DHT22;61085;48.804;9.228;2023-02-26T11:20:36;1.90;99.90
72936;DHT22;61085;48.804;9.228;2023-02-26T11:23:05;2.00;99.90
72936;DHT22;61085;48.804;9.228;2023-02-26T11:25:32;2.00;99.90
72936;DHT22;61085;48.804;9.228;2023-02-26T11:28:04;2.10;99.90
72936;DHT22;61085;48.804;9.228;2023-02-26T11:33:31;2.00;99.30
72936;DHT22;61085;48.804;9.228;2023-02-26T11:36:01;1.90;98.60
72936;DHT22;61085;48.804;9.228;2023-02-26T11:40:56;2.10;99.90
72936;DHT22;61085;48.804;9.228;2023-02-26T11:43:25;2.10;98.20
72936;DHT22;61085;48.804;9.228;2023-02-26T11:45:59;2.30;98.40
72936;DHT22;61085;48.804;9.228;2023-02-26T11:48:37;2.30;98.90
72936;DHT22;61085;48.804;9.228;2023-02-26T11:51:04;2.40;99.20
72936;DHT22;61085;48.804;9.228;2023-02-26T11:53:40;2.50;99.30
72936;DHT22;61085;48.804;9.228;2023-02-26T12:06:21;2.10;99.90
72936;DHT22;61085;48.804;9.228;2023-02-26T12:08:49;2.10;99.90
72936;DHT22;61085;48.804;9.228;2023-02-26T12:22:39;2.00;99.90
72936;DHT22;61085;48.804;9.228;2023-02-26T12:41:56;2.10;99.90
72936;DHT22;61085;48.804;9.228;2023-02-26T12:50:48;2.10;99.90
72936;DHT22;61085;48.804;9.228;2023-02-26T13:01:21;2.70;99.90
72936;DHT22;61085;48.804;9.228;2023-02-26T13:09:44;2.70;97.10
72936;DHT22;61085;48.804;9.228;2023-02-26T13:15:16;2.60;96.20
72936;DHT22;61085;48.804;9.228;2023-02-26T13:20:24;2.60;95.90
72936;DHT22;61085;48.804;9.228;2023-02-26T13:40:37;2.80;90.00
72936;DHT22;61085;48.804;9.228;2023-02-26T13:54:01;2.90;88.00
72936;DHT22;61085;48.804;9.228;2023-02-26T14:01:34;2.90;85.70
72936;DHT22;61085;48.804;9.228;2023-02-26T14:06:48;3.00;90.30
72936;DHT22;61085;48.804;9.228;2023-02-26T14:14:42;2.90;91.30
72936;DHT22;61085;48.804;9.228;2023-02-26T14:22:33;2.90;89.80
72936;DHT22;61085;48.804;9.228;2023-02-26T14:25:35;3.20;89.20
72936;DHT22;61085;48.804;9.228;2023-02-26T14:30:52;3.30;86.40
72936;DHT22;61085;48.804;9.228;2023-02-26T14:33:25;3.30;84.80
72936;DHT22;61085;48.804;9.228;2023-02-26T14:38:25;3.10;85.20
72936;DHT22;61085;48.804;9.228;2023-02-26T14:40:58;3.10;83.70
72936;DHT22;61085;48.804;9.228;2023-02-26T14:43:44;2.90;84.00
72936;DHT22;61085;48.804;9.228;2023-02-26T14:46:12;3.00;84.30
72936;DHT22;61085;48.804;9.228;2023-02-26T14:48:38;3.00;81.50
72936;DHT22;61085;48.804;9.228;2023-02-26T14:51:08;3.00;80.60
72936;DHT22;61085;48.804;9.228;2023-02-26T15:01:46;3.00;80.80
72936;DHT22;61085;48.804;9.228;2023-02-26T15:04:30;3.00;82.90
72936;DHT22;61085;48.804;9.228;2023-02-26T15:07:31;3.10;84.40
72936;DHT22;61085;48.804;9.228;2023-02-26T15:15:52;3.10;82.30
72936;DHT22;61085;48.804;9.228;2023-02-26T15:40:42;2.80;82.80
72936;DHT22;61085;48.804;9.228;2023-02-26T15:43:11;2.80;82.70
72936;DHT22;61085;48.804;9.228;2023-02-26T15:45:41;3.00;82.50
72936;DHT22;61085;48.804;9.228;2023-02-26T15:50:42;3.00;79.00
72936;DHT22;61085;48.804;9.228;2023-02-26T15:53:12;3.00;80.10
72936;DHT22;61085;48.804;9.228;2023-02-26T15:58:15;3.10;76.60
72936;DHT22;61085;48.804;9.228;2023-02-26T16:00:49;3.00;71.80
72936;DHT22;61085;48.804;9.228;2023-02-26T16:03:15;2.90;71.60
72936;DHT22;61085;48.804;9.228;2023-02-26T16:05:41;2.80;72.10
72936;DHT22;61085;48.804;9.228;2023-02-26T16:08:10;2.80;71.30
72936;DHT22;61085;48.804;9.228;2023-02-26T16:10:40;2.70;70.40
72936;DHT22;61085;48.804;9.228;2023-02-26T16:13:13;2.60;70.50
72936;DHT22;61085;48.804;9.228;2023-02-26T16:15:40;2.60;71.10
72936;DHT22;61085;48.804;9.228;2023-02-26T16:18:17;2.60;70.10
72936;DHT22;61085;48.804;9.228;2023-02-26T16:20:47;2.60;70.70
